This is the latest recevied weather packets stored in our database for station/object WD7CGF. If no packets are shown the sender has not sent any weather packets the latest 10 day(s).
| Time | Temp. | Humidity | Pressure | Rain* | Wind** | Luminosity | Snow |
|---|---|---|---|---|---|---|---|
| 1777652294 | 13.33° C | 60% | 1017.6 hPa | 0 mm | - | - | - |
| 1777651703 | 13.89° C | 61% | 1018.3 hPa | 0 mm | - | - | - |
| 1777651095 | 13.33° C | 63% | 1017.7 hPa | 0 mm | - | - | - |
| 1777650503 | 12.78° C | 64% | 1017.7 hPa | 0 mm | - | - | - |
| 1777649891 | 11.67° C | 67% | 1017.9 hPa | 0 mm | - | - | - |
| 1777649302 | 10.56° C | 70% | 1018 hPa | 0 mm | - | - | - |
| 1777648108 | 10° C | 70% | 1018.6 hPa | 0 mm | - | - | - |
| 1777647498 | 8.89° C | 75% | 1017.9 hPa | 0 mm | - | - | - |
| 1777646903 | 7.78° C | 79% | 1017.9 hPa | 0 mm | - | - | - |
| 1777646300 | 6.67° C | 81% | 1018 hPa | 0 mm | - | - | - |
| 1777645093 | 5.56° C | 86% | 1018 hPa | 0 mm | - | - | - |
| 1777643908 | 3.89° C | 90% | 1017.8 hPa | 0 mm | - | - | - |
| 1777643294 | 2.78° C | 90% | 1017.8 hPa | 0 mm | - | - | - |
| 1777642702 | 2.22° C | 90% | 1017.8 hPa | 0 mm | - | - | - |
| 1777642089 | 2.22° C | 90% | 1017.9 hPa | 0 mm | - | - | - |
| 1777641500 | 2.22° C | 89% | 1017.9 hPa | 0 mm | - | - | - |
| 1777640889 | 1.67° C | 89% | 1017.7 hPa | 0 mm | - | - | - |
| 1777640298 | 1.67° C | 88% | 1017.5 hPa | 0 mm | - | - | - |
| 1777639701 | 2.22° C | 88% | 1017.5 hPa | 0 mm | - | - | - |
| 1777639090 | 2.22° C | 88% | 1017.3 hPa | 0 mm | - | - | - |
| 1777638496 | 2.22° C | 88% | 1017.3 hPa | 0 mm | - | - | - |
| 1777637903 | 2.22° C | 88% | 1017.3 hPa | 0 mm | - | - | - |
| 1777637307 | 2.22° C | 88% | 1017.3 hPa | 0 mm | - | - | - |
| 1777636695 | 2.22° C | 87% | 1017.4 hPa | 0 mm | - | - | - |
| 1777636103 | 2.22° C | 87% | 1017.4 hPa | 0 mm | - | - | - |
* Rain since midnight (hover to see other rain measurements)
** Current wind speed in m/s (hover to see current wind gust speed)